Terminal Aerodrome Forecast
Issued by NWS Cleveland, OH

Home | Current Version | Previous Version | Graphics & Text | Print | Product List | Glossary On
Versions: 1 2 3 4 5 6 7 8 9 10 11 12 13 14
000
FTUS41 KCLE 011124
TAFERI
TAF
KERI 011124Z 0112/0212 21004KT 6SM HZ SKC
     FM011600 30008KT P6SM FEW040
     FM012300 VRB03KT P6SM SKC
     FM020600 18005KT 4SM BR SCT250=

USA.gov is the U.S. government's official web portal to all federal, state and local government web resources and services.